sensor_id;sensor_type;location;lat;lon;timestamp;P1;durP1;ratioP1;P2;durP2;ratioP2
65896;SDS011;52677;50.898;10.854;2023-06-26T00:00:34;8.40;;;5.90;;
65896;SDS011;52677;50.898;10.854;2023-06-26T00:02:34;6.05;;;5.45;;
65896;SDS011;52677;50.898;10.854;2023-06-26T00:04:34;15.50;;;5.60;;
65896;SDS011;52677;50.898;10.854;2023-06-26T00:06:37;6.75;;;5.57;;
65896;SDS011;52677;50.898;10.854;2023-06-26T00:08:38;7.00;;;5.43;;
65896;SDS011;52677;50.898;10.854;2023-06-26T00:10:38;5.55;;;5.03;;
65896;SDS011;52677;50.898;10.854;2023-06-26T00:12:39;6.45;;;5.20;;
65896;SDS011;52677;50.898;10.854;2023-06-26T00:14:39;5.60;;;5.00;;
65896;SDS011;52677;50.898;10.854;2023-06-26T00:16:39;14.93;;;5.10;;
65896;SDS011;52677;50.898;10.854;2023-06-26T00:18:39;6.18;;;5.18;;
65896;SDS011;52677;50.898;10.854;2023-06-26T00:20:40;7.28;;;5.47;;
65896;SDS011;52677;50.898;10.854;2023-06-26T00:22:40;11.05;;;5.32;;
65896;SDS011;52677;50.898;10.854;2023-06-26T00:24:40;5.82;;;5.22;;
65896;SDS011;52677;50.898;10.854;2023-06-26T00:26:41;6.28;;;5.40;;
65896;SDS011;52677;50.898;10.854;2023-06-26T00:28:41;8.65;;;5.65;;
65896;SDS011;52677;50.898;10.854;2023-06-26T00:30:41;6.25;;;5.57;;
65896;SDS011;52677;50.898;10.854;2023-06-26T00:32:42;7.95;;;6.55;;
65896;SDS011;52677;50.898;10.854;2023-06-26T00:34:42;9.45;;;6.35;;
65896;SDS011;52677;50.898;10.854;2023-06-26T00:36:43;9.70;;;6.22;;
65896;SDS011;52677;50.898;10.854;2023-06-26T00:38:43;8.27;;;5.70;;
65896;SDS011;52677;50.898;10.854;2023-06-26T00:40:43;7.68;;;5.80;;
65896;SDS011;52677;50.898;10.854;2023-06-26T00:42:44;9.10;;;6.03;;
65896;SDS011;52677;50.898;10.854;2023-06-26T00:44:44;8.70;;;5.78;;
65896;SDS011;52677;50.898;10.854;2023-06-26T00:46:45;7.15;;;5.68;;
65896;SDS011;52677;50.898;10.854;2023-06-26T00:48:46;6.35;;;5.75;;
65896;SDS011;52677;50.898;10.854;2023-06-26T00:50:48;8.18;;;6.15;;
65896;SDS011;52677;50.898;10.854;2023-06-26T00:52:48;7.50;;;5.68;;
65896;SDS011;52677;50.898;10.854;2023-06-26T00:54:49;9.10;;;5.80;;
65896;SDS011;52677;50.898;10.854;2023-06-26T00:56:51;8.27;;;5.65;;
65896;SDS011;52677;50.898;10.854;2023-06-26T00:58:51;8.23;;;5.28;;
65896;SDS011;52677;50.898;10.854;2023-06-26T01:00:52;9.50;;;6.28;;
65896;SDS011;52677;50.898;10.854;2023-06-26T01:02:52;9.27;;;6.60;;
65896;SDS011;52677;50.898;10.854;2023-06-26T01:04:53;6.97;;;5.75;;
65896;SDS011;52677;50.898;10.854;2023-06-26T01:06:53;6.57;;;5.30;;
65896;SDS011;52677;50.898;10.854;2023-06-26T01:08:54;10.15;;;6.10;;
65896;SDS011;52677;50.898;10.854;2023-06-26T01:10:55;8.57;;;5.78;;
65896;SDS011;52677;50.898;10.854;2023-06-26T01:12:55;11.68;;;6.40;;
65896;SDS011;52677;50.898;10.854;2023-06-26T01:14:57;14.57;;;6.57;;
65896;SDS011;52677;50.898;10.854;2023-06-26T01:16:58;8.05;;;6.22;;
65896;SDS011;52677;50.898;10.854;2023-06-26T01:19:01;10.90;;;5.97;;
65896;SDS011;52677;50.898;10.854;2023-06-26T01:21:02;8.52;;;6.18;;
65896;SDS011;52677;50.898;10.854;2023-06-26T01:23:22;8.30;;;6.00;;
65896;SDS011;52677;50.898;10.854;2023-06-26T01:25:32;8.82;;;6.32;;
65896;SDS011;52677;50.898;10.854;2023-06-26T01:27:38;7.80;;;6.53;;
65896;SDS011;52677;50.898;10.854;2023-06-26T01:29:40;9.55;;;6.60;;
65896;SDS011;52677;50.898;10.854;2023-06-26T01:31:41;11.32;;;6.65;;
65896;SDS011;52677;50.898;10.854;2023-06-26T01:33:42;9.25;;;6.30;;
65896;SDS011;52677;50.898;10.854;2023-06-26T01:35:43;6.97;;;5.97;;
65896;SDS011;52677;50.898;10.854;2023-06-26T01:37:44;7.75;;;6.30;;
65896;SDS011;52677;50.898;10.854;2023-06-26T01:39:44;9.35;;;6.45;;
65896;SDS011;52677;50.898;10.854;2023-06-26T01:41:45;7.80;;;5.80;;
65896;SDS011;52677;50.898;10.854;2023-06-26T01:48:49;8.73;;;6.65;;
65896;SDS011;52677;50.898;10.854;2023-06-26T01:50:59;7.68;;;6.47;;
65896;SDS011;52677;50.898;10.854;2023-06-26T01:53:02;8.40;;;6.18;;
65896;SDS011;52677;50.898;10.854;2023-06-26T01:55:15;11.63;;;7.07;;
65896;SDS011;52677;50.898;10.854;2023-06-26T01:57:21;11.13;;;6.50;;
65896;SDS011;52677;50.898;10.854;2023-06-26T01:59:22;7.68;;;6.20;;
65896;SDS011;52677;50.898;10.854;2023-06-26T02:01:25;10.98;;;6.35;;
65896;SDS011;52677;50.898;10.854;2023-06-26T02:03:26;8.30;;;6.25;;
65896;SDS011;52677;50.898;10.854;2023-06-26T02:05:26;9.38;;;6.30;;
65896;SDS011;52677;50.898;10.854;2023-06-26T02:07:26;10.82;;;6.20;;
65896;SDS011;52677;50.898;10.854;2023-06-26T02:09:27;6.78;;;5.65;;
65896;SDS011;52677;50.898;10.854;2023-06-26T02:11:27;11.10;;;6.38;;
65896;SDS011;52677;50.898;10.854;2023-06-26T02:13:27;12.10;;;6.22;;
65896;SDS011;52677;50.898;10.854;2023-06-26T02:15:27;9.80;;;6.10;;
65896;SDS011;52677;50.898;10.854;2023-06-26T02:17:28;16.70;;;7.20;;
65896;SDS011;52677;50.898;10.854;2023-06-26T02:19:28;14.75;;;5.80;;
65896;SDS011;52677;50.898;10.854;2023-06-26T02:21:28;9.70;;;5.68;;
65896;SDS011;52677;50.898;10.854;2023-06-26T02:23:29;8.07;;;6.68;;
65896;SDS011;52677;50.898;10.854;2023-06-26T02:25:29;10.68;;;5.80;;
65896;SDS011;52677;50.898;10.854;2023-06-26T02:27:29;9.82;;;6.20;;
65896;SDS011;52677;50.898;10.854;2023-06-26T02:29:29;12.95;;;6.50;;
65896;SDS011;52677;50.898;10.854;2023-06-26T02:31:30;11.93;;;6.55;;
65896;SDS011;52677;50.898;10.854;2023-06-26T02:33:30;11.23;;;6.50;;
65896;SDS011;52677;50.898;10.854;2023-06-26T02:35:30;7.38;;;5.53;;
65896;SDS011;52677;50.898;10.854;2023-06-26T02:37:32;7.97;;;5.63;;
65896;SDS011;52677;50.898;10.854;2023-06-26T02:39:33;9.80;;;5.95;;
65896;SDS011;52677;50.898;10.854;2023-06-26T02:41:34;10.68;;;5.97;;
65896;SDS011;52677;50.898;10.854;2023-06-26T02:43:34;12.32;;;6.90;;
65896;SDS011;52677;50.898;10.854;2023-06-26T02:45:35;15.40;;;6.15;;
65896;SDS011;52677;50.898;10.854;2023-06-26T02:47:35;9.55;;;6.05;;
65896;SDS011;52677;50.898;10.854;2023-06-26T02:49:39;9.88;;;6.05;;
65896;SDS011;52677;50.898;10.854;2023-06-26T02:51:39;8.82;;;6.22;;
65896;SDS011;52677;50.898;10.854;2023-06-26T02:53:40;11.02;;;6.22;;
65896;SDS011;52677;50.898;10.854;2023-06-26T02:55:40;11.40;;;6.22;;
65896;SDS011;52677;50.898;10.854;2023-06-26T02:57:40;5.82;;;5.15;;
65896;SDS011;52677;50.898;10.854;2023-06-26T02:59:40;12.50;;;6.32;;
65896;SDS011;52677;50.898;10.854;2023-06-26T03:01:41;7.57;;;6.20;;
65896;SDS011;52677;50.898;10.854;2023-06-26T03:03:41;10.60;;;6.18;;
65896;SDS011;52677;50.898;10.854;2023-06-26T03:05:41;10.88;;;6.93;;
65896;SDS011;52677;50.898;10.854;2023-06-26T03:07:42;12.50;;;6.68;;
65896;SDS011;52677;50.898;10.854;2023-06-26T03:09:42;8.65;;;6.88;;
65896;SDS011;52677;50.898;10.854;2023-06-26T03:11:42;9.68;;;6.85;;
65896;SDS011;52677;50.898;10.854;2023-06-26T03:13:43;14.00;;;7.32;;
65896;SDS011;52677;50.898;10.854;2023-06-26T03:15:43;9.90;;;6.68;;
65896;SDS011;52677;50.898;10.854;2023-06-26T03:17:43;8.88;;;6.68;;
65896;SDS011;52677;50.898;10.854;2023-06-26T03:19:44;8.65;;;6.30;;
65896;SDS011;52677;50.898;10.854;2023-06-26T03:21:45;8.77;;;6.43;;
65896;SDS011;52677;50.898;10.854;2023-06-26T03:23:45;10.40;;;6.25;;
65896;SDS011;52677;50.898;10.854;2023-06-26T03:25:45;10.30;;;7.25;;
65896;SDS011;52677;50.898;10.854;2023-06-26T03:27:46;32.22;;;7.70;;
65896;SDS011;52677;50.898;10.854;2023-06-26T03:29:46;10.25;;;7.47;;
65896;SDS011;52677;50.898;10.854;2023-06-26T03:31:47;9.90;;;7.18;;
65896;SDS011;52677;50.898;10.854;2023-06-26T03:33:47;12.60;;;6.30;;
65896;SDS011;52677;50.898;10.854;2023-06-26T03:35:47;9.20;;;6.05;;
65896;SDS011;52677;50.898;10.854;2023-06-26T03:37:48;8.77;;;6.97;;
65896;SDS011;52677;50.898;10.854;2023-06-26T03:39:49;12.75;;;6.75;;
65896;SDS011;52677;50.898;10.854;2023-06-26T03:41:49;8.18;;;6.43;;
65896;SDS011;52677;50.898;10.854;2023-06-26T03:43:50;13.23;;;6.93;;
65896;SDS011;52677;50.898;10.854;2023-06-26T03:45:50;9.80;;;6.70;;
65896;SDS011;52677;50.898;10.854;2023-06-26T03:47:50;10.40;;;6.13;;
65896;SDS011;52677;50.898;10.854;2023-06-26T03:49:50;9.57;;;6.70;;
65896;SDS011;52677;50.898;10.854;2023-06-26T03:51:51;10.13;;;6.72;;
65896;SDS011;52677;50.898;10.854;2023-06-26T03:53:51;8.93;;;6.00;;
65896;SDS011;52677;50.898;10.854;2023-06-26T03:55:51;10.82;;;6.97;;
65896;SDS011;52677;50.898;10.854;2023-06-26T03:57:52;8.90;;;6.30;;
65896;SDS011;52677;50.898;10.854;2023-06-26T03:59:52;11.45;;;6.50;;
65896;SDS011;52677;50.898;10.854;2023-06-26T04:01:53;11.15;;;6.78;;
65896;SDS011;52677;50.898;10.854;2023-06-26T04:03:54;14.30;;;7.70;;
65896;SDS011;52677;50.898;10.854;2023-06-26T04:05:54;11.35;;;7.45;;
65896;SDS011;52677;50.898;10.854;2023-06-26T04:07:54;7.90;;;6.95;;
65896;SDS011;52677;50.898;10.854;2023-06-26T04:09:55;10.63;;;7.60;;
65896;SDS011;52677;50.898;10.854;2023-06-26T04:11:55;9.27;;;6.82;;
65896;SDS011;52677;50.898;10.854;2023-06-26T04:13:55;9.00;;;6.50;;
65896;SDS011;52677;50.898;10.854;2023-06-26T04:15:56;9.68;;;6.93;;
65896;SDS011;52677;50.898;10.854;2023-06-26T04:17:56;9.38;;;6.65;;
65896;SDS011;52677;50.898;10.854;2023-06-26T04:19:56;13.57;;;7.03;;
65896;SDS011;52677;50.898;10.854;2023-06-26T04:21:56;8.63;;;6.47;;
65896;SDS011;52677;50.898;10.854;2023-06-26T04:23:57;11.35;;;7.00;;
65896;SDS011;52677;50.898;10.854;2023-06-26T04:25:57;15.82;;;6.63;;
65896;SDS011;52677;50.898;10.854;2023-06-26T04:27:58;11.13;;;7.10;;
65896;SDS011;52677;50.898;10.854;2023-06-26T04:29:58;9.00;;;6.63;;
65896;SDS011;52677;50.898;10.854;2023-06-26T04:31:59;12.73;;;6.88;;
65896;SDS011;52677;50.898;10.854;2023-06-26T04:33:59;14.73;;;7.18;;
65896;SDS011;52677;50.898;10.854;2023-06-26T04:35:59;14.35;;;7.53;;
65896;SDS011;52677;50.898;10.854;2023-06-26T04:38:03;12.55;;;6.90;;
65896;SDS011;52677;50.898;10.854;2023-06-26T04:40:05;10.13;;;7.07;;
65896;SDS011;52677;50.898;10.854;2023-06-26T04:42:07;19.83;;;7.93;;
65896;SDS011;52677;50.898;10.854;2023-06-26T04:44:07;11.48;;;7.35;;
65896;SDS011;52677;50.898;10.854;2023-06-26T04:46:07;10.32;;;7.45;;
65896;SDS011;52677;50.898;10.854;2023-06-26T04:48:08;11.73;;;7.30;;
65896;SDS011;52677;50.898;10.854;2023-06-26T04:50:09;13.68;;;7.78;;
65896;SDS011;52677;50.898;10.854;2023-06-26T04:52:09;15.82;;;8.35;;
65896;SDS011;52677;50.898;10.854;2023-06-26T04:54:10;10.32;;;7.25;;
65896;SDS011;52677;50.898;10.854;2023-06-26T04:56:11;16.02;;;8.05;;
65896;SDS011;52677;50.898;10.854;2023-06-26T04:58:11;11.75;;;7.43;;
65896;SDS011;52677;50.898;10.854;2023-06-26T05:00:11;8.82;;;6.90;;
65896;SDS011;52677;50.898;10.854;2023-06-26T05:02:12;16.80;;;8.35;;
65896;SDS011;52677;50.898;10.854;2023-06-26T05:04:14;11.63;;;7.30;;
65896;SDS011;52677;50.898;10.854;2023-06-26T05:06:16;16.17;;;9.43;;
65896;SDS011;52677;50.898;10.854;2023-06-26T05:08:23;16.40;;;8.48;;
65896;SDS011;52677;50.898;10.854;2023-06-26T05:10:26;15.95;;;8.68;;
65896;SDS011;52677;50.898;10.854;2023-06-26T05:12:26;16.80;;;8.82;;
65896;SDS011;52677;50.898;10.854;2023-06-26T05:14:26;15.73;;;8.40;;
65896;SDS011;52677;50.898;10.854;2023-06-26T05:16:27;20.25;;;8.90;;
65896;SDS011;52677;50.898;10.854;2023-06-26T05:18:27;13.45;;;8.30;;
65896;SDS011;52677;50.898;10.854;2023-06-26T05:20:27;15.02;;;9.05;;
65896;SDS011;52677;50.898;10.854;2023-06-26T05:22:28;10.40;;;8.57;;
65896;SDS011;52677;50.898;10.854;2023-06-26T05:24:28;13.63;;;9.50;;
65896;SDS011;52677;50.898;10.854;2023-06-26T05:26:30;13.48;;;8.70;;
65896;SDS011;52677;50.898;10.854;2023-06-26T05:28:30;12.82;;;9.48;;
65896;SDS011;52677;50.898;10.854;2023-06-26T05:30:31;18.48;;;8.90;;
65896;SDS011;52677;50.898;10.854;2023-06-26T05:32:34;16.23;;;10.30;;
65896;SDS011;52677;50.898;10.854;2023-06-26T05:34:38;16.10;;;10.32;;
65896;SDS011;52677;50.898;10.854;2023-06-26T05:36:41;11.88;;;9.48;;
65896;SDS011;52677;50.898;10.854;2023-06-26T05:40:42;18.92;;;10.70;;
65896;SDS011;52677;50.898;10.854;2023-06-26T05:42:43;13.13;;;10.35;;
65896;SDS011;52677;50.898;10.854;2023-06-26T05:44:44;10.85;;;9.10;;
65896;SDS011;52677;50.898;10.854;2023-06-26T05:46:45;12.75;;;9.82;;
65896;SDS011;52677;50.898;10.854;2023-06-26T05:48:46;12.90;;;10.07;;
65896;SDS011;52677;50.898;10.854;2023-06-26T05:50:47;12.52;;;9.45;;
65896;SDS011;52677;50.898;10.854;2023-06-26T05:52:48;12.23;;;9.63;;
65896;SDS011;52677;50.898;10.854;2023-06-26T05:54:48;13.90;;;9.95;;
65896;SDS011;52677;50.898;10.854;2023-06-26T05:56:49;12.55;;;9.75;;
65896;SDS011;52677;50.898;10.854;2023-06-26T05:58:55;13.52;;;10.00;;
65896;SDS011;52677;50.898;10.854;2023-06-26T06:00:57;14.95;;;11.13;;
65896;SDS011;52677;50.898;10.854;2023-06-26T06:02:57;12.57;;;10.13;;
65896;SDS011;52677;50.898;10.854;2023-06-26T06:04:58;11.88;;;8.52;;
65896;SDS011;52677;50.898;10.854;2023-06-26T06:06:58;15.32;;;9.52;;
65896;SDS011;52677;50.898;10.854;2023-06-26T06:08:58;9.65;;;8.43;;
65896;SDS011;52677;50.898;10.854;2023-06-26T06:10:59;10.65;;;8.25;;
65896;SDS011;52677;50.898;10.854;2023-06-26T06:13:00;11.27;;;9.13;;
65896;SDS011;52677;50.898;10.854;2023-06-26T06:15:00;12.50;;;10.07;;
65896;SDS011;52677;50.898;10.854;2023-06-26T06:17:00;11.68;;;9.10;;
65896;SDS011;52677;50.898;10.854;2023-06-26T06:19:01;15.88;;;10.25;;
65896;SDS011;52677;50.898;10.854;2023-06-26T06:21:03;11.57;;;9.00;;
65896;SDS011;52677;50.898;10.854;2023-06-26T06:23:03;10.75;;;8.43;;
65896;SDS011;52677;50.898;10.854;2023-06-26T06:25:04;11.30;;;8.68;;
65896;SDS011;52677;50.898;10.854;2023-06-26T06:27:04;12.45;;;8.80;;
65896;SDS011;52677;50.898;10.854;2023-06-26T06:29:05;13.10;;;9.38;;
65896;SDS011;52677;50.898;10.854;2023-06-26T06:31:06;11.23;;;8.20;;
65896;SDS011;52677;50.898;10.854;2023-06-26T06:33:06;10.98;;;8.98;;
65896;SDS011;52677;50.898;10.854;2023-06-26T06:35:06;10.85;;;8.82;;
65896;SDS011;52677;50.898;10.854;2023-06-26T06:37:09;11.23;;;8.43;;
65896;SDS011;52677;50.898;10.854;2023-06-26T06:39:10;11.18;;;8.25;;
65896;SDS011;52677;50.898;10.854;2023-06-26T06:41:10;12.20;;;8.45;;
65896;SDS011;52677;50.898;10.854;2023-06-26T06:43:10;9.82;;;7.85;;
65896;SDS011;52677;50.898;10.854;2023-06-26T06:45:11;10.07;;;7.13;;
65896;SDS011;52677;50.898;10.854;2023-06-26T06:47:11;9.00;;;7.47;;
65896;SDS011;52677;50.898;10.854;2023-06-26T06:49:11;8.73;;;6.97;;
65896;SDS011;52677;50.898;10.854;2023-06-26T06:51:12;8.65;;;6.93;;
65896;SDS011;52677;50.898;10.854;2023-06-26T06:53:12;8.90;;;6.60;;
65896;SDS011;52677;50.898;10.854;2023-06-26T06:55:13;9.45;;;7.32;;
65896;SDS011;52677;50.898;10.854;2023-06-26T06:57:14;10.18;;;6.80;;
65896;SDS011;52677;50.898;10.854;2023-06-26T06:59:14;7.43;;;6.63;;
65896;SDS011;52677;50.898;10.854;2023-06-26T07:01:14;9.88;;;5.82;;
65896;SDS011;52677;50.898;10.854;2023-06-26T07:03:14;9.70;;;6.80;;
65896;SDS011;52677;50.898;10.854;2023-06-26T07:05:15;7.63;;;6.30;;
65896;SDS011;52677;50.898;10.854;2023-06-26T07:07:18;8.10;;;6.00;;
65896;SDS011;52677;50.898;10.854;2023-06-26T07:09:19;9.05;;;6.10;;
65896;SDS011;52677;50.898;10.854;2023-06-26T07:11:19;7.72;;;6.22;;
65896;SDS011;52677;50.898;10.854;2023-06-26T07:13:19;9.55;;;6.45;;
65896;SDS011;52677;50.898;10.854;2023-06-26T07:15:20;7.93;;;6.07;;
65896;SDS011;52677;50.898;10.854;2023-06-26T07:17:20;7.55;;;6.50;;
65896;SDS011;52677;50.898;10.854;2023-06-26T07:19:21;9.00;;;6.28;;
65896;SDS011;52677;50.898;10.854;2023-06-26T07:21:21;7.30;;;6.07;;
65896;SDS011;52677;50.898;10.854;2023-06-26T07:23:22;9.75;;;6.32;;
65896;SDS011;52677;50.898;10.854;2023-06-26T07:25:22;8.70;;;5.90;;
65896;SDS011;52677;50.898;10.854;2023-06-26T07:27:22;6.72;;;5.97;;
65896;SDS011;52677;50.898;10.854;2023-06-26T07:29:23;8.18;;;6.10;;
65896;SDS011;52677;50.898;10.854;2023-06-26T07:31:23;7.82;;;5.93;;
65896;SDS011;52677;50.898;10.854;2023-06-26T07:33:23;9.57;;;6.07;;
65896;SDS011;52677;50.898;10.854;2023-06-26T07:35:24;7.70;;;5.93;;
65896;SDS011;52677;50.898;10.854;2023-06-26T07:37:27;6.30;;;5.65;;
65896;SDS011;52677;50.898;10.854;2023-06-26T07:39:27;7.35;;;5.32;;
65896;SDS011;52677;50.898;10.854;2023-06-26T07:41:27;9.18;;;5.75;;
65896;SDS011;52677;50.898;10.854;2023-06-26T07:45:31;5.18;;;4.53;;
65896;SDS011;52677;50.898;10.854;2023-06-26T07:47:31;5.72;;;5.13;;
65896;SDS011;52677;50.898;10.854;2023-06-26T07:49:31;6.45;;;5.10;;
65896;SDS011;52677;50.898;10.854;2023-06-26T07:51:32;5.93;;;4.85;;
65896;SDS011;52677;50.898;10.854;2023-06-26T07:53:32;5.78;;;4.80;;
65896;SDS011;52677;50.898;10.854;2023-06-26T07:55:32;7.15;;;4.72;;
65896;SDS011;52677;50.898;10.854;2023-06-26T07:57:33;6.68;;;4.93;;
65896;SDS011;52677;50.898;10.854;2023-06-26T07:59:33;6.55;;;4.53;;
65896;SDS011;52677;50.898;10.854;2023-06-26T08:01:33;5.10;;;4.60;;
65896;SDS011;52677;50.898;10.854;2023-06-26T08:03:34;6.60;;;4.75;;
65896;SDS011;52677;50.898;10.854;2023-06-26T08:05:35;5.18;;;4.35;;
65896;SDS011;52677;50.898;10.854;2023-06-26T08:07:35;7.18;;;4.85;;
65896;SDS011;52677;50.898;10.854;2023-06-26T08:09:35;6.65;;;4.82;;
65896;SDS011;52677;50.898;10.854;2023-06-26T08:11:36;5.35;;;4.82;;
65896;SDS011;52677;50.898;10.854;2023-06-26T08:13:36;7.00;;;5.05;;
65896;SDS011;52677;50.898;10.854;2023-06-26T08:15:36;8.52;;;5.35;;
65896;SDS011;52677;50.898;10.854;2023-06-26T08:17:37;6.15;;;5.00;;
65896;SDS011;52677;50.898;10.854;2023-06-26T08:19:38;5.15;;;4.60;;
65896;SDS011;52677;50.898;10.854;2023-06-26T08:21:39;5.90;;;4.80;;
65896;SDS011;52677;50.898;10.854;2023-06-26T08:23:43;5.97;;;4.60;;
65896;SDS011;52677;50.898;10.854;2023-06-26T08:25:44;5.43;;;4.70;;
65896;SDS011;52677;50.898;10.854;2023-06-26T08:27:44;6.65;;;4.90;;
65896;SDS011;52677;50.898;10.854;2023-06-26T08:29:44;5.93;;;5.10;;
65896;SDS011;52677;50.898;10.854;2023-06-26T08:31:45;7.45;;;4.63;;
65896;SDS011;52677;50.898;10.854;2023-06-26T08:33:45;8.27;;;5.30;;
65896;SDS011;52677;50.898;10.854;2023-06-26T08:35:46;7.63;;;5.38;;
65896;SDS011;52677;50.898;10.854;2023-06-26T08:37:46;6.78;;;5.32;;
65896;SDS011;52677;50.898;10.854;2023-06-26T08:39:47;6.30;;;5.22;;
65896;SDS011;52677;50.898;10.854;2023-06-26T08:41:48;6.60;;;5.00;;
65896;SDS011;52677;50.898;10.854;2023-06-26T08:43:48;6.05;;;5.15;;
65896;SDS011;52677;50.898;10.854;2023-06-26T08:47:54;5.72;;;5.13;;
65896;SDS011;52677;50.898;10.854;2023-06-26T08:50:10;6.75;;;4.95;;
65896;SDS011;52677;50.898;10.854;2023-06-26T08:54:42;5.97;;;5.32;;
65896;SDS011;52677;50.898;10.854;2023-06-26T08:56:47;7.05;;;5.18;;
65896;SDS011;52677;50.898;10.854;2023-06-26T08:58:49;6.68;;;4.47;;
65896;SDS011;52677;50.898;10.854;2023-06-26T09:00:50;5.75;;;5.03;;
65896;SDS011;52677;50.898;10.854;2023-06-26T09:02:51;6.57;;;5.68;;
65896;SDS011;52677;50.898;10.854;2023-06-26T09:04:52;6.63;;;4.93;;
65896;SDS011;52677;50.898;10.854;2023-06-26T09:06:52;6.95;;;5.30;;
65896;SDS011;52677;50.898;10.854;2023-06-26T09:08:52;5.97;;;5.35;;
65896;SDS011;52677;50.898;10.854;2023-06-26T09:10:53;8.85;;;5.43;;
65896;SDS011;52677;50.898;10.854;2023-06-26T09:12:56;5.97;;;5.32;;
65896;SDS011;52677;50.898;10.854;2023-06-26T09:15:01;6.32;;;5.05;;
65896;SDS011;52677;50.898;10.854;2023-06-26T09:17:03;6.93;;;5.05;;
65896;SDS011;52677;50.898;10.854;2023-06-26T09:19:03;8.63;;;5.38;;
65896;SDS011;52677;50.898;10.854;2023-06-26T09:21:06;6.28;;;5.18;;
65896;SDS011;52677;50.898;10.854;2023-06-26T09:23:07;5.50;;;4.95;;
65896;SDS011;52677;50.898;10.854;2023-06-26T09:25:08;6.40;;;5.35;;
65896;SDS011;52677;50.898;10.854;2023-06-26T09:27:09;8.88;;;5.40;;
65896;SDS011;52677;50.898;10.854;2023-06-26T09:29:11;7.53;;;5.05;;
65896;SDS011;52677;50.898;10.854;2023-06-26T09:31:13;5.70;;;5.10;;
65896;SDS011;52677;50.898;10.854;2023-06-26T09:33:17;7.78;;;5.10;;
65896;SDS011;52677;50.898;10.854;2023-06-26T09:35:20;6.28;;;5.60;;
65896;SDS011;52677;50.898;10.854;2023-06-26T09:37:20;5.80;;;5.20;;
65896;SDS011;52677;50.898;10.854;2023-06-26T09:39:20;8.35;;;5.45;;
65896;SDS011;52677;50.898;10.854;2023-06-26T09:41:21;7.53;;;5.50;;
65896;SDS011;52677;50.898;10.854;2023-06-26T09:43:21;6.65;;;5.40;;
65896;SDS011;52677;50.898;10.854;2023-06-26T09:45:21;6.20;;;5.60;;
65896;SDS011;52677;50.898;10.854;2023-06-26T09:47:23;7.80;;;5.25;;
65896;SDS011;52677;50.898;10.854;2023-06-26T09:49:24;6.65;;;5.18;;
65896;SDS011;52677;50.898;10.854;2023-06-26T09:51:25;11.55;;;5.63;;
65896;SDS011;52677;50.898;10.854;2023-06-26T09:53:26;6.22;;;5.18;;
65896;SDS011;52677;50.898;10.854;2023-06-26T09:55:26;7.18;;;5.50;;
65896;SDS011;52677;50.898;10.854;2023-06-26T09:57:27;8.13;;;4.95;;
65896;SDS011;52677;50.898;10.854;2023-06-26T09:59:27;6.03;;;5.43;;
65896;SDS011;52677;50.898;10.854;2023-06-26T10:01:28;6.63;;;5.63;;
65896;SDS011;52677;50.898;10.854;2023-06-26T10:03:28;7.45;;;5.20;;
65896;SDS011;52677;50.898;10.854;2023-06-26T10:05:29;6.03;;;5.43;;
65896;SDS011;52677;50.898;10.854;2023-06-26T10:07:29;5.97;;;5.38;;
65896;SDS011;52677;50.898;10.854;2023-06-26T10:09:29;4.97;;;4.35;;
65896;SDS011;52677;50.898;10.854;2023-06-26T10:11:41;5.93;;;5.32;;
65896;SDS011;52677;50.898;10.854;2023-06-26T10:14:04;5.78;;;5.18;;
65896;SDS011;52677;50.898;10.854;2023-06-26T10:16:07;6.72;;;5.45;;
65896;SDS011;52677;50.898;10.854;2023-06-26T10:18:08;8.73;;;6.10;;
65896;SDS011;52677;50.898;10.854;2023-06-26T10:20:10;6.63;;;4.97;;
65896;SDS011;52677;50.898;10.854;2023-06-26T10:22:12;6.28;;;5.53;;
65896;SDS011;52677;50.898;10.854;2023-06-26T10:24:17;8.25;;;5.30;;
65896;SDS011;52677;50.898;10.854;2023-06-26T10:26:18;6.07;;;5.00;;
65896;SDS011;52677;50.898;10.854;2023-06-26T10:28:21;6.53;;;5.55;;
65896;SDS011;52677;50.898;10.854;2023-06-26T10:32:26;6.28;;;5.40;;
65896;SDS011;52677;50.898;10.854;2023-06-26T10:34:28;6.53;;;5.60;;
65896;SDS011;52677;50.898;10.854;2023-06-26T10:36:30;5.90;;;5.00;;
65896;SDS011;52677;50.898;10.854;2023-06-26T10:38:47;5.88;;;5.28;;
65896;SDS011;52677;50.898;10.854;2023-06-26T10:40:49;6.10;;;5.50;;
65896;SDS011;52677;50.898;10.854;2023-06-26T10:42:49;5.78;;;4.88;;
65896;SDS011;52677;50.898;10.854;2023-06-26T10:44:50;6.20;;;5.40;;
65896;SDS011;52677;50.898;10.854;2023-06-26T10:46:52;6.15;;;5.60;;
65896;SDS011;52677;50.898;10.854;2023-06-26T10:49:00;9.07;;;5.65;;
65896;SDS011;52677;50.898;10.854;2023-06-26T10:51:13;6.57;;;5.70;;
65896;SDS011;52677;50.898;10.854;2023-06-26T10:53:15;5.85;;;5.28;;
65896;SDS011;52677;50.898;10.854;2023-06-26T10:55:26;5.85;;;5.35;;
65896;SDS011;52677;50.898;10.854;2023-06-26T10:57:27;6.05;;;5.47;;
65896;SDS011;52677;50.898;10.854;2023-06-26T10:59:28;5.72;;;5.22;;
65896;SDS011;52677;50.898;10.854;2023-06-26T11:01:30;8.45;;;5.40;;
65896;SDS011;52677;50.898;10.854;2023-06-26T11:04:03;6.13;;;5.35;;
65896;SDS011;52677;50.898;10.854;2023-06-26T11:06:14;7.78;;;5.50;;
65896;SDS011;52677;50.898;10.854;2023-06-26T11:08:18;6.20;;;5.10;;
65896;SDS011;52677;50.898;10.854;2023-06-26T11:10:20;7.37;;;5.57;;
65896;SDS011;52677;50.898;10.854;2023-06-26T11:14:42;8.35;;;5.93;;
65896;SDS011;52677;50.898;10.854;2023-06-26T11:16:45;7.68;;;5.47;;
65896;SDS011;52677;50.898;10.854;2023-06-26T11:18:46;6.55;;;5.88;;
65896;SDS011;52677;50.898;10.854;2023-06-26T11:20:46;8.13;;;6.03;;
65896;SDS011;52677;50.898;10.854;2023-06-26T11:22:47;6.10;;;5.25;;
65896;SDS011;52677;50.898;10.854;2023-06-26T11:24:53;6.18;;;5.57;;
65896;SDS011;52677;50.898;10.854;2023-06-26T11:26:54;6.13;;;5.28;;
65896;SDS011;52677;50.898;10.854;2023-06-26T11:28:59;9.70;;;5.82;;
65896;SDS011;52677;50.898;10.854;2023-06-26T11:30:59;5.43;;;4.93;;
65896;SDS011;52677;50.898;10.854;2023-06-26T11:33:03;6.10;;;5.50;;
65896;SDS011;52677;50.898;10.854;2023-06-26T11:35:05;7.40;;;5.75;;
65896;SDS011;52677;50.898;10.854;2023-06-26T11:37:06;7.28;;;5.47;;
65896;SDS011;52677;50.898;10.854;2023-06-26T11:39:06;7.28;;;5.90;;
65896;SDS011;52677;50.898;10.854;2023-06-26T11:41:07;6.35;;;5.20;;
65896;SDS011;52677;50.898;10.854;2023-06-26T11:43:09;6.97;;;4.90;;
65896;SDS011;52677;50.898;10.854;2023-06-26T11:45:09;6.00;;;5.43;;
65896;SDS011;52677;50.898;10.854;2023-06-26T11:47:16;6.05;;;5.45;;
65896;SDS011;52677;50.898;10.854;2023-06-26T11:49:18;6.05;;;5.20;;
65896;SDS011;52677;50.898;10.854;2023-06-26T11:51:18;6.10;;;5.50;;
65896;SDS011;52677;50.898;10.854;2023-06-26T11:53:18;5.80;;;5.20;;
65896;SDS011;52677;50.898;10.854;2023-06-26T11:55:19;6.80;;;6.10;;
65896;SDS011;52677;50.898;10.854;2023-06-26T11:57:19;7.85;;;5.15;;
65896;SDS011;52677;50.898;10.854;2023-06-26T11:59:20;7.28;;;5.70;;
65896;SDS011;52677;50.898;10.854;2023-06-26T12:01:20;7.47;;;5.22;;
65896;SDS011;52677;50.898;10.854;2023-06-26T12:03:22;5.90;;;5.30;;
65896;SDS011;52677;50.898;10.854;2023-06-26T12:05:23;6.20;;;5.60;;
65896;SDS011;52677;50.898;10.854;2023-06-26T12:07:24;6.63;;;5.32;;
65896;SDS011;52677;50.898;10.854;2023-06-26T12:09:25;9.32;;;4.75;;
65896;SDS011;52677;50.898;10.854;2023-06-26T12:11:26;6.72;;;4.85;;
65896;SDS011;52677;50.898;10.854;2023-06-26T12:13:28;7.35;;;5.05;;
65896;SDS011;52677;50.898;10.854;2023-06-26T12:15:29;7.05;;;5.15;;